Horse Cave, Kentucky
Current Conditions -  °F | °C
As of 11:15 AM on Wednesday 26 Nov 2014 (Local Time) from KGLW Reporting Station
Clear Clear  
Wind Chill: 38°   Ceiling: Unl
Heat Index: 41°   Visibility: 10mi
Dew Point: 29°   Wind: 5mph
Humidity: 62%   Direction: 250°WSW
Pressure: 30.11"   Gusts: NA
Location:  37.18°N, 85.91°W
Report Text: KGLW 261715Z AUTO 25004KT 10SM CLR 05/M02 A3011 RMK AO2 T00511016
Loading
Personal Weather Stations






























Interactive Weather Map New forecast layout! Learn more

10-Day Weather Forecast

Advertisements
Track Severe Weather on mobile